Time;durP1;ratioP1;P1;durP2;ratioP2;P2;SDS_P1;SDS_P2;PMS_P1;PMS_P2;Temp;Humidity;BMP_temperature;BMP_pressure;BME280_temperature;BME280_humidity;BME280_pressure;Samples;Min_cycle;Max_cycle;Signal;HPM_P1;HPM_P2
2022/03/06 00:01:16;;;;;;;0.90;0.90;;;-2.70;1.00;;;;;;5049732;28;20288;-75
2022/03/06 00:03:44;;;;;;;0.80;0.80;;;-2.90;1.00;;;;;;5049400;28;20566;-76
2022/03/06 00:06:10;;;;;;;0.90;0.90;;;-2.80;1.00;;;;;;5049422;28;20515;-74
2022/03/06 00:08:35;;;;;;;1.00;1.00;;;-2.80;99.90;;;;;;5049306;28;20183;-73
2022/03/06 00:11:01;;;;;;;0.90;0.90;;;-2.90;99.90;;;;;;5048827;28;20286;-75
2022/03/06 00:13:26;;;;;;;0.90;0.90;;;-3.00;1.00;;;;;;5049531;28;20258;-74
2022/03/06 00:15:52;;;;;;;0.90;0.90;;;-3.00;99.90;;;;;;5049657;28;20175;-74
2022/03/06 00:18:18;;;;;;;0.90;0.90;;;-3.10;99.90;;;;;;5049492;28;20256;-72
2022/03/06 00:20:44;;;;;;;0.90;0.90;;;-3.20;99.90;;;;;;5047710;28;20226;-74
2022/03/06 00:23:09;;;;;;;0.90;0.90;;;-3.30;99.90;;;;;;5030069;28;20183;-75
2022/03/06 00:25:35;;;;;;;0.90;0.90;;;-3.30;1.00;;;;;;5053453;28;20191;-74
2022/03/06 00:28:01;;;;;;;0.90;0.90;;;-3.30;1.00;;;;;;5053750;28;20242;-72
2022/03/06 00:30:27;;;;;;;0.83;0.83;;;-3.20;99.90;;;;;;5048592;28;20949;-71
2022/03/06 00:32:52;;;;;;;0.80;0.80;;;-3.20;1.00;;;;;;5048074;28;20199;-74
2022/03/06 00:35:18;;;;;;;1.00;1.00;;;-3.30;1.00;;;;;;5047419;28;20622;-73
2022/03/06 00:37:43;;;;;;;1.00;1.00;;;-3.30;1.00;;;;;;5047733;28;20181;-73
2022/03/06 00:40:09;;;;;;;0.80;0.80;;;-3.40;31.10;;;;;;5047138;28;20272;-74
2022/03/06 00:42:35;;;;;;;1.00;1.00;;;-3.40;99.90;;;;;;5050959;28;20175;-76
2022/03/06 00:45:01;;;;;;;0.90;0.90;;;-3.50;99.90;;;;;;5053078;28;20186;-74
2022/03/06 00:47:26;;;;;;;0.80;0.80;;;-3.50;99.90;;;;;;5053280;28;20270;-75
2022/03/06 00:49:52;;;;;;;0.90;0.90;;;-3.60;1.00;;;;;;5052301;28;20203;-75
2022/03/06 00:52:18;;;;;;;0.90;0.90;;;-3.80;1.00;;;;;;5052562;28;20179;-75
2022/03/06 00:54:43;;;;;;;0.90;0.90;;;-3.70;1.50;;;;;;5052702;28;20237;-73
2022/03/06 00:57:09;;;;;;;0.80;0.80;;;-3.60;1.00;;;;;;5052732;28;20525;-74
2022/03/06 00:59:35;;;;;;;0.90;0.90;;;-3.60;1.00;;;;;;5052243;28;20233;-75
2022/03/06 01:02:03;;;;;;;0.83;0.83;;;-3.60;1.00;;;;;;5052889;28;20180;-74
2022/03/06 01:04:29;;;;;;;0.80;0.80;;;-3.50;1.00;;;;;;5052716;28;20237;-75
2022/03/06 01:06:55;;;;;;;0.80;0.80;;;-4.20;1.00;;;;;;5052713;28;20669;-74
2022/03/06 01:09:20;;;;;;;0.90;0.90;;;-3.50;1.00;;;;;;5051994;28;20195;-75
2022/03/06 01:11:46;;;;;;;0.90;0.90;;;-3.50;1.00;;;;;;5052879;28;20175;-74
2022/03/06 01:14:12;;;;;;;0.90;0.90;;;-3.50;99.90;;;;;;5052801;28;20210;-74
2022/03/06 01:16:37;;;;;;;0.90;0.90;;;-3.60;99.90;;;;;;5052525;28;20194;-74
2022/03/06 01:19:03;;;;;;;0.90;0.90;;;-3.60;99.90;;;;;;5052052;28;20179;-74
2022/03/06 01:21:28;;;;;;;0.80;0.80;;;-3.50;99.90;;;;;;5052512;28;20179;-74
2022/03/06 01:23:54;;;;;;;0.90;0.90;;;-3.50;1.00;;;;;;5052758;28;20197;-74
2022/03/06 01:26:20;;;;;;;0.90;0.90;;;-3.40;99.90;;;;;;5052402;28;20187;-74
2022/03/06 01:28:45;;;;;;;0.90;0.90;;;-3.50;1.00;;;;;;5052561;28;20186;-75
2022/03/06 01:31:11;;;;;;;0.90;0.90;;;-3.60;99.90;;;;;;5052066;28;20200;-75
2022/03/06 01:33:37;;;;;;;0.90;0.90;;;-3.60;99.90;;;;;;5052387;28;20186;-74
2022/03/06 01:36:03;;;;;;;0.80;0.80;;;-3.60;99.90;;;;;;5052309;28;20201;-74
2022/03/06 01:38:29;;;;;;;0.80;0.80;;;-3.60;99.90;;;;;;5052269;28;20598;-74
2022/03/06 01:40:55;;;;;;;0.87;0.87;;;-3.60;99.90;;;;;;5051814;28;20218;-74
2022/03/06 01:43:21;;;;;;;1.00;1.00;;;-3.60;47.60;;;;;;5052284;28;20174;-75
2022/03/06 01:45:46;;;;;;;1.00;1.00;;;-3.60;99.90;;;;;;5052075;28;20237;-74
2022/03/06 01:48:12;;;;;;;1.00;1.00;;;-3.60;99.90;;;;;;5052160;28;20254;-74
2022/03/06 01:50:38;;;;;;;1.00;1.00;;;-3.60;1.00;;;;;;5051440;28;20719;-74
2022/03/06 01:53:10;;;;;;;0.90;0.90;;;-3.70;1.00;;;;;;5051932;28;20186;-76
2022/03/06 01:55:36;;;;;;;0.90;0.90;;;-3.80;99.90;;;;;;5052045;28;20175;-75
2022/03/06 01:58:05;;;;;;;0.90;0.90;;;-3.80;1.00;;;;;;5051935;28;20179;-75
2022/03/06 02:00:35;;;;;;;0.90;0.90;;;-3.90;1.00;;;;;;5051087;28;20715;-75
2022/03/06 02:03:00;;;;;;;0.90;0.90;;;-3.90;1.00;;;;;;5052509;28;20171;-75
2022/03/06 02:05:26;;;;;;;0.90;0.90;;;-3.90;1.00;;;;;;5052403;28;20289;-75
2022/03/06 02:07:52;;;;;;;0.90;0.90;;;-3.90;99.90;;;;;;5052362;28;20266;-74
2022/03/06 02:10:18;;;;;;;0.97;0.97;;;-3.90;1.00;;;;;;5051848;28;20237;-74
2022/03/06 02:12:44;;;;;;;1.00;1.00;;;-3.90;1.00;;;;;;5052486;28;20171;-75
2022/03/06 02:15:13;;;;;;;1.00;1.00;;;-3.90;1.00;;;;;;5051961;28;20175;-75
2022/03/06 02:17:39;;;;;;;0.90;0.90;;;-3.90;1.00;;;;;;5051547;28;20175;-75
2022/03/06 02:20:06;;;;;;;0.90;0.90;;;-3.90;1.00;;;;;;5050912;28;20260;-75
2022/03/06 02:22:38;;;;;;;0.80;0.80;;;-4.00;1.00;;;;;;5051263;28;20198;-75
2022/03/06 02:25:09;;;;;;;0.90;0.90;;;-4.00;1.00;;;;;;5051238;28;20244;-75
2022/03/06 02:27:35;;;;;;;0.90;0.90;;;-4.00;1.00;;;;;;5051409;28;20171;-75
2022/03/06 02:30:07;;;;;;;0.90;0.90;;;-3.90;1.00;;;;;;5051175;28;20199;-74
2022/03/06 02:32:33;;;;;;;0.90;0.90;;;-3.80;1.00;;;;;;5051464;28;20171;-75
2022/03/06 02:34:59;;;;;;;0.90;0.90;;;-3.70;1.00;;;;;;5051561;28;20670;-74
2022/03/06 02:37:24;;;;;;;0.83;0.83;;;-3.70;1.00;;;;;;5051448;28;20183;-75
2022/03/06 02:39:50;;;;;;;0.80;0.80;;;-3.80;99.90;;;;;;5050935;28;20211;-75
2022/03/06 02:42:30;;;;;;;0.80;0.80;;;-3.90;1.00;;;;;;5051443;28;20272;-74
2022/03/06 02:44:58;;;;;;;0.87;0.87;;;-4.00;1.00;;;;;;5051248;28;20316;-75
2022/03/06 02:47:24;;;;;;;0.90;0.90;;;-4.10;1.00;;;;;;5051226;28;20254;-75
2022/03/06 02:49:49;;;;;;;0.90;0.90;;;-4.10;1.00;;;;;;5050718;28;20282;-74
2022/03/06 02:52:15;;;;;;;0.80;0.80;;;-4.20;1.00;;;;;;5050973;28;20176;-75
2022/03/06 02:54:41;;;;;;;0.90;0.90;;;-4.20;1.00;;;;;;5051168;28;20653;-74
2022/03/06 02:57:07;;;;;;;0.80;0.80;;;-4.10;1.00;;;;;;5051073;28;20171;-75
2022/03/06 02:59:33;;;;;;;0.93;0.93;;;-4.10;1.00;;;;;;5050343;28;20211;-74
2022/03/06 03:01:59;;;;;;;0.80;0.80;;;-4.10;1.00;;;;;;5051211;28;20174;-73
2022/03/06 03:04:24;;;;;;;0.90;0.90;;;-4.10;1.00;;;;;;5050512;28;20262;-74
2022/03/06 03:06:51;;;;;;;0.90;0.90;;;-4.10;1.00;;;;;;5051176;28;20172;-75
2022/03/06 03:09:21;;;;;;;0.80;0.80;;;-4.10;1.00;;;;;;5050360;28;20199;-75
2022/03/06 03:11:48;;;;;;;0.90;0.90;;;-4.20;99.90;;;;;;5050974;28;20175;-75
2022/03/06 03:14:14;;;;;;;0.90;0.90;;;-4.10;99.90;;;;;;5051740;28;20589;-72
2022/03/06 03:16:40;;;;;;;0.90;0.90;;;-4.20;99.90;;;;;;5053591;28;20649;-74
2022/03/06 03:19:06;;;;;;;0.90;0.90;;;-4.20;99.90;;;;;;5053278;28;20183;-74
2022/03/06 03:21:32;;;;;;;0.83;0.83;;;-4.20;99.90;;;;;;5051852;28;20175;-73
2022/03/06 03:23:58;;;;;;;0.90;0.90;;;-4.20;99.90;;;;;;5050718;28;20286;-73
2022/03/06 03:26:24;;;;;;;0.80;0.80;;;-4.20;99.90;;;;;;5049830;28;20241;-74
2022/03/06 03:28:49;;;;;;;0.90;0.90;;;-4.10;99.90;;;;;;5049502;28;20239;-76
2022/03/06 03:31:15;;;;;;;0.87;0.87;;;-4.20;34.30;;;;;;5049601;28;20194;-75
2022/03/06 03:33:40;;;;;;;1.00;1.00;;;-4.30;99.90;;;;;;5049775;28;20462;-75
2022/03/06 03:36:06;;;;;;;0.80;0.80;;;-4.40;99.90;;;;;;5049686;28;20660;-75
2022/03/06 03:38:32;;;;;;;0.90;0.90;;;-4.70;99.90;;;;;;5049585;28;20171;-75
2022/03/06 03:40:57;;;;;;;0.80;0.80;;;-4.90;99.90;;;;;;5048838;28;20215;-74
2022/03/06 03:43:23;;;;;;;0.90;0.90;;;-5.00;1.00;;;;;;5049328;28;20175;-75
2022/03/06 03:45:49;;;;;;;0.93;0.93;;;-5.10;1.00;;;;;;5049627;28;20321;-73
2022/03/06 03:48:15;;;;;;;0.90;0.90;;;-5.00;1.00;;;;;;5049531;28;20228;-75
2022/03/06 03:50:40;;;;;;;0.90;0.90;;;-4.80;1.00;;;;;;5048962;28;20286;-75
2022/03/06 03:53:06;;;;;;;0.80;0.80;;;-4.70;1.00;;;;;;5049475;28;20182;-74
2022/03/06 03:55:31;;;;;;;0.90;0.90;;;-4.60;1.00;;;;;;5049399;28;20249;-76
2022/03/06 03:57:57;;;;;;;0.90;0.90;;;-4.00;1.00;;;;;;5049204;28;20175;-75
2022/03/06 04:00:23;;;;;;;0.80;0.80;;;-4.60;99.90;;;;;;5048969;28;20326;-74
2022/03/06 04:02:48;;;;;;;0.80;0.80;;;-4.60;99.90;;;;;;5049999;28;20171;-75
2022/03/06 04:05:14;;;;;;;0.87;0.87;;;-4.70;99.90;;;;;;5050688;28;20670;-72
2022/03/06 04:07:39;;;;;;;1.00;1.00;;;-4.80;99.90;;;;;;5049168;28;20174;-74
2022/03/06 04:10:05;;;;;;;0.80;0.80;;;-4.30;99.90;;;;;;5048716;28;20316;-75
2022/03/06 04:12:30;;;;;;;0.80;0.80;;;-4.70;99.90;;;;;;5049004;28;20539;-74
2022/03/06 04:14:56;;;;;;;0.80;0.80;;;-4.80;99.90;;;;;;5049367;28;20179;-73
2022/03/06 04:17:21;;;;;;;1.00;1.00;;;-4.80;99.90;;;;;;5048319;28;20175;-73
2022/03/06 04:19:47;;;;;;;0.90;0.90;;;-4.70;99.90;;;;;;5048659;28;20214;-72
2022/03/06 04:22:12;;;;;;;0.90;0.90;;;-4.80;99.90;;;;;;5049260;28;20568;-72
2022/03/06 04:24:38;;;;;;;0.80;0.80;;;-4.80;99.90;;;;;;5013728;28;1023274;-73
2022/03/06 04:27:04;;;;;;;0.90;0.90;;;-4.90;99.90;;;;;;5050078;28;20246;-72
2022/03/06 04:29:30;;;;;;;0.90;0.90;;;-4.80;99.90;;;;;;5049496;28;20191;-71
2022/03/06 04:31:56;;;;;;;0.90;0.90;;;-4.80;99.90;;;;;;5049445;28;20183;-73
2022/03/06 04:34:21;;;;;;;0.80;0.80;;;-4.80;99.90;;;;;;5049971;28;20183;-73
2022/03/06 04:36:47;;;;;;;0.90;0.90;;;-4.90;99.90;;;;;;5049579;28;20189;-73
2022/03/06 04:39:13;;;;;;;0.93;0.93;;;-4.80;1.00;;;;;;5049270;28;20179;-71
2022/03/06 04:41:38;;;;;;;0.90;0.90;;;-4.90;1.00;;;;;;5049685;28;20178;-70
2022/03/06 04:44:04;;;;;;;0.90;0.90;;;-5.00;1.00;;;;;;5049685;28;20167;-71
2022/03/06 04:46:31;;;;;;;0.90;0.90;;;-4.90;1.00;;;;;;5049853;28;20266;-72
2022/03/06 04:48:56;;;;;;;0.90;0.90;;;-4.90;1.00;;;;;;5049028;28;20676;-71
2022/03/06 04:51:22;;;;;;;0.90;0.90;;;-5.00;1.00;;;;;;5049423;28;20179;-72
2022/03/06 04:53:48;;;;;;;0.83;0.83;;;-4.90;1.00;;;;;;5049378;28;20645;-72
2022/03/06 04:56:13;;;;;;;0.90;0.90;;;-5.00;1.00;;;;;;5050089;28;20179;-73
2022/03/06 04:58:39;;;;;;;0.90;0.90;;;-5.10;99.90;;;;;;5049738;28;20186;-73
2022/03/06 05:01:05;;;;;;;0.73;0.73;;;-5.10;1.00;;;;;;5049409;28;20265;-70
2022/03/06 05:03:30;;;;;;;0.87;0.87;;;-5.10;99.90;;;;;;5050361;28;20207;-72
2022/03/06 05:05:56;;;;;;;0.80;0.80;;;-5.10;1.00;;;;;;5050121;28;20197;-70
2022/03/06 05:08:22;;;;;;;0.70;0.70;;;-5.20;99.90;;;;;;5050966;28;20175;-72
2022/03/06 05:10:47;;;;;;;0.80;0.80;;;-5.20;99.90;;;;;;5051209;28;20646;-74
2022/03/06 05:13:13;;;;;;;0.80;0.80;;;-5.20;1.00;;;;;;5052318;28;20183;-71
2022/03/06 05:15:40;;;;;;;0.90;0.90;;;-5.20;1.00;;;;;;5050489;28;20274;-72
2022/03/06 05:18:05;;;;;;;0.80;0.80;;;-5.10;1.00;;;;;;5051754;28;20610;-72
2022/03/06 05:20:31;;;;;;;0.83;0.83;;;-5.10;1.00;;;;;;5049403;28;20336;-72
2022/03/06 05:22:56;;;;;;;0.90;0.90;;;-5.10;1.00;;;;;;5050103;28;20224;-73
2022/03/06 05:25:22;;;;;;;0.80;0.80;;;-5.20;1.00;;;;;;5049703;28;20248;-72
2022/03/06 05:27:48;;;;;;;0.80;0.80;;;-4.80;1.00;;;;;;5050715;28;20175;-71
2022/03/06 05:30:14;;;;;;;0.90;0.90;;;-5.30;1.00;;;;;;5053018;28;20577;-73
2022/03/06 05:32:40;;;;;;;0.80;0.80;;;-5.20;1.00;;;;;;5053505;28;20206;-73
2022/03/06 05:35:06;;;;;;;0.80;0.80;;;-5.20;1.00;;;;;;5053377;28;20224;-73
2022/03/06 05:37:32;;;;;;;0.80;0.80;;;-5.30;1.00;;;;;;5053333;28;20175;-71
2022/03/06 05:39:58;;;;;;;0.87;0.87;;;-5.30;1.00;;;;;;5052712;28;20214;-74
2022/03/06 05:42:24;;;;;;;0.80;0.80;;;-5.30;1.00;;;;;;5053358;28;20539;-72
2022/03/06 05:44:49;;;;;;;0.70;0.70;;;-5.30;1.00;;;;;;5053357;28;20182;-71
2022/03/06 05:47:15;;;;;;;0.80;0.80;;;-5.20;1.00;;;;;;5053394;28;20175;-72
2022/03/06 05:49:40;;;;;;;0.80;0.80;;;-5.20;1.00;;;;;;5052545;28;20195;-71
2022/03/06 05:52:06;;;;;;;0.80;0.80;;;-5.20;1.00;;;;;;5053055;28;20221;-72
2022/03/06 05:54:32;;;;;;;0.73;0.73;;;-5.20;1.00;;;;;;5052999;28;20221;-71
2022/03/06 05:56:58;;;;;;;0.77;0.77;;;-5.20;1.00;;;;;;5053276;28;20539;-72
2022/03/06 05:59:23;;;;;;;0.70;0.70;;;-5.30;1.00;;;;;;5052552;28;20191;-72
2022/03/06 06:01:49;;;;;;;0.80;0.80;;;-5.20;1.00;;;;;;5053190;28;20225;-71
2022/03/06 06:04:14;;;;;;;0.70;0.70;;;-5.20;1.00;;;;;;5053108;28;20179;-73
2022/03/06 06:06:40;;;;;;;0.60;0.60;;;-5.20;1.00;;;;;;5052683;28;20193;-70
2022/03/06 06:09:06;;;;;;;0.80;0.80;;;-5.10;1.00;;;;;;5052012;28;20168;-72
2022/03/06 06:11:32;;;;;;;0.80;0.80;;;-5.10;1.00;;;;;;5052895;28;20706;-70
2022/03/06 06:13:57;;;;;;;0.90;0.90;;;-5.10;1.00;;;;;;5052872;28;20171;-72
2022/03/06 06:16:23;;;;;;;0.80;0.80;;;-4.90;1.00;;;;;;5052813;28;20563;-71
2022/03/06 06:18:48;;;;;;;0.80;0.80;;;-4.80;1.00;;;;;;5058176;28;20645;-71
2022/03/06 06:21:16;;;;;;;0.80;0.80;;;-4.70;99.90;;;;;;5058373;28;20222;-71
2022/03/06 06:23:42;;;;;;;0.80;0.80;;;-4.80;99.90;;;;;;5057959;28;20206;-70
2022/03/06 06:26:07;;;;;;;0.80;0.80;;;-4.60;1.00;;;;;;5055268;28;20195;-74
2022/03/06 06:28:33;;;;;;;0.80;0.80;;;-4.50;99.90;;;;;;5052862;28;20830;-72
2022/03/06 06:30:59;;;;;;;0.80;0.80;;;-4.30;99.90;;;;;;5052091;28;20298;-74
2022/03/06 06:33:24;;;;;;;0.80;0.80;;;-4.20;84.10;;;;;;5052393;28;20185;-71
2022/03/06 06:35:50;;;;;;;0.70;0.70;;;-4.00;99.90;;;;;;5052552;28;20187;-73
2022/03/06 06:38:15;;;;;;;0.80;0.80;;;-3.90;25.20;;;;;;5052415;28;20181;-73
2022/03/06 06:40:41;;;;;;;0.80;0.80;;;-3.60;99.20;;;;;;5051127;28;20625;-74
2022/03/06 06:43:06;;;;;;;0.80;0.80;;;-3.40;99.90;;;;;;5052460;28;20179;-73
2022/03/06 06:45:32;;;;;;;0.90;0.90;;;-3.20;1.00;;;;;;5052354;28;20704;-73
2022/03/06 06:47:57;;;;;;;0.90;0.90;;;-2.90;1.00;;;;;;5051959;28;20175;-74
2022/03/06 06:50:23;;;;;;;0.80;0.80;;;-2.70;99.90;;;;;;5051239;28;20202;-73
2022/03/06 06:52:48;;;;;;;0.80;0.80;;;-2.20;1.00;;;;;;5052032;28;20175;-74
2022/03/06 06:55:14;;;;;;;0.80;0.80;;;-1.80;1.00;;;;;;5052187;28;20198;-73
2022/03/06 06:57:40;;;;;;;0.90;0.90;;;-1.90;99.90;;;;;;5051712;28;20540;-74
2022/03/06 07:00:07;;;;;;;0.80;0.80;;;-1.50;1.00;;;;;;5051158;28;20218;-74
2022/03/06 07:02:33;;;;;;;0.70;0.70;;;0.30;1.00;;;;;;5051883;28;20176;-75
2022/03/06 07:04:58;;;;;;;0.80;0.80;;;0.90;37.10;;;;;;5051934;28;20186;-74
2022/03/06 07:07:24;;;;;;;0.80;0.80;;;1.60;1.00;;;;;;5051763;28;20179;-74
2022/03/06 07:09:50;;;;;;;0.70;0.70;;;2.20;1.00;;;;;;5051633;28;20214;-74
2022/03/06 07:12:15;;;;;;;0.80;0.80;;;3.00;1.00;;;;;;5051876;28;20207;-73
2022/03/06 07:14:41;;;;;;;0.70;0.70;;;3.20;1.00;;;;;;5051890;28;20180;-74
2022/03/06 07:17:06;;;;;;;0.60;0.60;;;3.80;1.00;;;;;;5051539;28;20179;-73
2022/03/06 07:19:32;;;;;;;0.60;0.60;;;4.10;1.00;;;;;;5050935;28;20211;-74
2022/03/06 07:21:59;;;;;;;0.60;0.60;;;4.50;1.00;;;;;;5051746;28;20649;-72
2022/03/06 07:24:25;;;;;;;0.60;0.60;;;4.80;1.00;;;;;;5051568;28;20186;-74
2022/03/06 07:26:51;;;;;;;0.60;0.60;;;4.70;1.00;;;;;;5051744;28;20241;-73
2022/03/06 07:29:16;;;;;;;0.50;0.50;;;4.80;1.00;;;;;;5050633;28;20199;-72
2022/03/06 07:31:42;;;;;;;0.60;0.60;;;5.30;1.00;;;;;;5051397;28;20182;-72
2022/03/06 07:34:07;;;;;;;0.60;0.60;;;5.60;1.00;;;;;;5051319;28;20189;-74
2022/03/06 07:36:33;;;;;;;0.60;0.60;;;5.30;1.00;;;;;;5051380;28;20218;-74
2022/03/06 07:38:58;;;;;;;0.47;0.47;;;5.40;1.00;;;;;;5050827;28;20211;-74
2022/03/06 07:41:24;;;;;;;0.57;0.57;;;5.70;1.00;;;;;;5051111;28;20246;-75
2022/03/06 07:43:50;;;;;;;0.47;0.47;;;6.00;1.00;;;;;;5051225;28;20179;-75
2022/03/06 07:46:15;;;;;;;0.40;0.40;;;6.00;1.00;;;;;;5051344;28;20228;-76
2022/03/06 07:48:41;;;;;;;0.40;0.40;;;6.20;1.00;;;;;;5049731;28;20175;-76
2022/03/06 07:51:06;;;;;;;0.40;0.40;;;6.90;1.00;;;;;;5049557;28;20187;-76
2022/03/06 07:53:32;;;;;;;0.40;0.40;;;7.10;1.00;;;;;;5050457;28;20175;-76
2022/03/06 07:55:57;;;;;;;0.40;0.40;;;6.70;1.00;;;;;;5050566;28;20186;-75
2022/03/06 07:58:23;;;;;;;0.40;0.40;;;7.00;1.00;;;;;;5050685;28;20538;-75
2022/03/06 08:00:48;;;;;;;0.40;0.40;;;6.80;1.00;;;;;;5050075;28;20301;-73
2022/03/06 08:03:15;;;;;;;0.30;0.30;;;7.40;1.00;;;;;;5050895;28;20183;-74
2022/03/06 08:05:41;;;;;;;0.40;0.40;;;7.40;1.00;;;;;;5032943;28;20202;-75
2022/03/06 08:08:07;;;;;;;0.30;0.30;;;7.70;1.00;;;;;;5051361;28;20638;-75
2022/03/06 08:10:32;;;;;;;0.30;0.30;;;7.90;1.00;;;;;;5051266;28;20196;-75
2022/03/06 08:12:58;;;;;;;0.40;0.40;;;8.00;1.00;;;;;;5051726;28;20178;-74
2022/03/06 08:15:23;;;;;;;0.30;0.30;;;7.80;1.00;;;;;;5051405;28;20217;-74
2022/03/06 08:17:49;;;;;;;0.33;0.33;;;8.40;1.00;;;;;;5051510;28;20214;-74
2022/03/06 08:20:14;;;;;;;0.30;0.30;;;8.60;1.00;;;;;;5050455;28;20211;-73
2022/03/06 08:22:40;;;;;;;0.37;0.37;;;8.50;1.00;;;;;;5051121;28;20703;-73
2022/03/06 08:25:07;;;;;;;0.30;0.30;;;8.70;1.00;;;;;;5051068;28;20191;-74
2022/03/06 08:27:33;;;;;;;0.40;0.40;;;9.20;1.00;;;;;;5051385;28;20175;-74
2022/03/06 08:29:59;;;;;;;0.33;0.33;;;9.40;1.00;;;;;;5050563;28;20539;-75
2022/03/06 08:32:25;;;;;;;0.40;0.40;;;9.20;1.00;;;;;;5051089;28;20195;-76
2022/03/06 08:34:51;;;;;;;0.40;0.40;;;9.60;1.00;;;;;;5050877;28;20175;-75
2022/03/06 08:37:18;;;;;;;0.30;0.30;;;9.70;1.00;;;;;;5050790;28;20233;-74
2022/03/06 08:39:46;;;;;;;0.33;0.33;;;10.20;1.00;;;;;;5050049;28;20207;-74
2022/03/06 08:42:11;;;;;;;0.40;0.40;;;9.60;1.00;;;;;;5050247;28;20670;-73
2022/03/06 08:44:37;;;;;;;0.40;0.40;;;9.60;1.00;;;;;;5050775;28;20202;-74
2022/03/06 08:47:03;;;;;;;0.50;0.50;;;9.30;1.00;;;;;;5053861;28;20175;-73
2022/03/06 08:49:28;;;;;;;0.40;0.40;;;9.90;1.00;;;;;;5055698;28;20198;-73
2022/03/06 08:51:54;;;;;;;0.33;0.33;;;9.70;1.00;;;;;;5055910;28;20175;-73
2022/03/06 08:54:21;;;;;;;0.30;0.30;;;9.40;1.00;;;;;;5054593;28;20186;-73
2022/03/06 08:56:46;;;;;;;0.40;0.40;;;8.50;1.00;;;;;;5050942;28;20203;-73
2022/03/06 08:59:12;;;;;;;0.30;0.30;;;9.20;1.00;;;;;;5050037;28;20171;-74
2022/03/06 09:01:38;;;;;;;0.40;0.40;;;8.90;1.00;;;;;;5050556;28;20685;-74
2022/03/06 09:04:03;;;;;;;0.40;0.40;;;8.50;1.00;;;;;;5053118;28;20580;-72
2022/03/06 09:06:29;;;;;;;0.40;0.40;;;8.70;1.00;;;;;;5054316;28;20214;-73
2022/03/06 09:08:55;;;;;;;0.60;0.60;;;8.60;1.00;;;;;;5053597;28;20163;-73
2022/03/06 09:11:20;;;;;;;0.60;0.60;;;7.80;1.00;;;;;;5054203;28;20159;-73
2022/03/06 09:13:46;;;;;;;0.50;0.50;;;7.20;1.00;;;;;;5053964;28;20593;-75
2022/03/06 09:16:11;;;;;;;0.40;0.40;;;8.40;1.00;;;;;;5054044;28;20225;-74
2022/03/06 09:18:37;;;;;;;0.50;0.50;;;8.30;1.00;;;;;;5054210;28;20171;-74
2022/03/06 09:21:02;;;;;;;0.50;0.50;;;8.70;1.00;;;;;;5053375;28;20286;-76
2022/03/06 09:23:28;;;;;;;0.53;0.53;;;8.10;1.00;;;;;;5053862;28;20179;-74
2022/03/06 09:25:54;;;;;;;0.50;0.50;;;7.30;1.00;;;;;;5053463;28;20649;-74
2022/03/06 09:28:20;;;;;;;0.60;0.60;;;6.50;1.00;;;;;;5053436;28;20617;-74
2022/03/06 09:30:46;;;;;;;0.60;0.60;;;7.00;1.00;;;;;;5053582;28;20669;-78
2022/03/06 09:33:11;;;;;;;0.60;0.60;;;6.90;1.00;;;;;;5056343;28;20171;-77
2022/03/06 09:35:37;;;;;;;0.60;0.60;;;6.50;1.00;;;;;;5053578;28;20182;-75
2022/03/06 09:38:03;;;;;;;0.70;0.70;;;7.10;1.00;;;;;;5052847;28;20229;-74
2022/03/06 09:40:29;;;;;;;0.70;0.70;;;7.00;1.00;;;;;;5052251;28;20616;-75
2022/03/06 09:42:54;;;;;;;0.70;0.70;;;6.80;1.00;;;;;;5053077;28;20225;-74
2022/03/06 09:45:23;;;;;;;0.50;0.50;;;7.20;1.00;;;;;;5053597;28;20225;-75
2022/03/06 09:47:49;;;;;;;0.63;0.63;;;7.90;1.00;;;;;;5053898;28;20286;-74
2022/03/06 09:50:15;;;;;;;0.70;0.70;;;6.90;1.00;;;;;;5053458;28;20705;-76
2022/03/06 09:52:42;;;;;;;0.53;0.53;;;8.10;1.00;;;;;;5054079;28;20254;-75
2022/03/06 09:55:09;;;;;;;0.50;0.50;;;8.60;1.00;;;;;;5054131;28;20187;-75
2022/03/06 09:57:35;;;;;;;0.50;0.50;;;7.90;1.00;;;;;;5053967;28;20678;-75
2022/03/06 10:00:01;;;;;;;0.60;0.60;;;7.10;1.00;;;;;;5052999;28;20214;-75
2022/03/06 10:02:26;;;;;;;0.57;0.57;;;7.20;1.00;;;;;;5053731;28;20175;-76
2022/03/06 10:04:52;;;;;;;0.67;0.67;;;7.50;1.00;;;;;;5054169;28;20182;-76
2022/03/06 10:07:19;;;;;;;0.60;0.60;;;7.60;1.00;;;;;;5053947;28;20204;-76
2022/03/06 10:09:56;;;;;;;0.60;0.60;;;7.80;1.00;;;;;;5052491;28;20202;-76
2022/03/06 10:12:30;;;;;;;0.60;0.60;;;8.70;1.00;;;;;;5053763;28;20179;-76
2022/03/06 10:15:04;;;;;;;0.60;0.60;;;8.70;1.00;;;;;;5053660;28;20173;-77
2022/03/06 10:17:31;;;;;;;0.60;0.60;;;10.40;1.00;;;;;;5054736;28;20207;-74
2022/03/06 10:20:02;;;;;;;0.60;0.60;;;10.00;1.00;;;;;;5054668;28;20211;-75
2022/03/06 10:22:31;;;;;;;0.60;0.60;;;8.10;1.00;;;;;;5054189;28;20179;-75
2022/03/06 10:25:00;;;;;;;0.60;0.60;;;7.20;1.00;;;;;;5053325;28;20732;-74
2022/03/06 10:27:47;;;;;;;0.60;0.60;;;6.50;1.00;;;;;;5053242;28;20179;-76
2022/03/06 10:30:27;;;;;;;0.60;0.60;;;6.90;1.00;;;;;;5052638;28;20202;-76
2022/03/06 10:32:54;;;;;;;0.73;0.73;;;6.10;1.00;;;;;;5053205;28;20171;-76
2022/03/06 10:35:31;;;;;;;0.60;0.60;;;5.70;1.00;;;;;;5053192;28;20203;-76
2022/03/06 10:37:57;;;;;;;0.60;0.60;;;5.60;1.00;;;;;;5053058;28;20574;-72
2022/03/06 10:40:38;;;;;;;0.70;0.70;;;5.80;1.00;;;;;;5052544;28;20212;-74
2022/03/06 10:43:17;;;;;;;0.60;0.60;;;4.90;1.00;;;;;;5052963;28;20660;-74
2022/03/06 10:45:43;;;;;;;0.70;0.70;;;5.10;1.00;;;;;;5053204;28;20167;-74
2022/03/06 10:48:10;;;;;;;0.70;0.70;;;5.20;1.00;;;;;;5053020;28;20204;-73
2022/03/06 10:50:37;;;;;;;0.70;0.70;;;5.90;1.00;;;;;;5052477;28;20191;-77
2022/03/06 10:53:23;;;;;;;0.70;0.70;;;5.40;1.00;;;;;;5053079;28;20174;-75
2022/03/06 10:55:49;;;;;;;0.80;0.80;;;5.40;1.00;;;;;;5053755;28;20252;-75
2022/03/06 10:58:14;;;;;;;0.73;0.73;;;5.50;1.00;;;;;;5053375;28;20241;-74
2022/03/06 11:00:41;;;;;;;0.67;0.67;;;6.20;1.00;;;;;;5053600;28;20697;-73
2022/03/06 11:03:07;;;;;;;0.70;0.70;;;5.80;1.00;;;;;;5053698;28;20255;-74
2022/03/06 11:05:33;;;;;;;0.80;0.80;;;5.70;1.00;;;;;;5052976;28;20207;-74
2022/03/06 11:08:00;;;;;;;0.70;0.70;;;5.50;1.00;;;;;;5051377;28;20681;-75
2022/03/06 11:10:27;;;;;;;0.60;0.60;;;6.30;1.00;;;;;;5059003;28;20955;-73
2022/03/06 11:12:53;;;;;;;0.70;0.70;;;5.50;1.00;;;;;;5063855;28;20182;-74
2022/03/06 11:15:20;;;;;;;0.77;0.77;;;5.60;1.00;;;;;;5050529;28;20184;-75
2022/03/06 11:17:46;;;;;;;0.70;0.70;;;5.60;1.00;;;;;;5053565;28;20587;-75
2022/03/06 11:20:12;;;;;;;0.70;0.70;;;6.10;1.00;;;;;;5057901;28;20291;-75
2022/03/06 11:22:52;;;;;;;0.70;0.70;;;5.90;1.00;;;;;;5066015;28;20167;-76
2022/03/06 11:25:23;;;;;;;0.70;0.70;;;5.80;1.00;;;;;;5059310;28;20240;-74
2022/03/06 11:28:16;;;;;;;0.70;0.70;;;7.90;1.00;;;;;;5071390;28;20224;-74
2022/03/06 11:30:42;;;;;;;0.60;0.60;;;7.10;1.00;;;;;;5071663;28;20281;-75
2022/03/06 11:33:09;;;;;;;0.70;0.70;;;6.70;1.00;;;;;;5072272;28;20331;-75
2022/03/06 11:35:41;;;;;;;0.70;0.70;;;6.30;1.00;;;;;;5072115;28;20213;-73
2022/03/06 11:38:08;;;;;;;0.70;0.70;;;6.30;1.00;;;;;;5071906;28;20197;-71
2022/03/06 11:40:51;;;;;;;0.50;0.50;;;6.50;1.00;;;;;;5071232;28;20324;-74
2022/03/06 11:43:29;;;;;;;0.70;0.70;;;6.00;1.00;;;;;;5072389;28;20173;-74
2022/03/06 11:46:16;;;;;;;0.70;0.70;;;6.20;1.00;;;;;;5072286;28;20170;-74
2022/03/06 11:48:42;;;;;;;0.70;0.70;;;6.50;1.00;;;;;;5062883;28;20179;-73
2022/03/06 11:51:22;;;;;;;0.80;0.80;;;6.60;1.00;;;;;;5071594;28;20187;-74
2022/03/06 11:54:07;;;;;;;0.73;0.73;;;6.20;1.00;;;;;;5071833;28;20178;-74
2022/03/06 11:56:32;;;;;;;0.70;0.70;;;6.50;1.00;;;;;;5071675;28;20174;-74
2022/03/06 11:59:05;;;;;;;0.77;0.77;;;6.70;1.00;;;;;;5071206;28;20201;-74
2022/03/06 12:01:41;;;;;;;0.60;0.60;;;6.90;1.00;;;;;;5072080;28;20206;-74
2022/03/06 12:04:07;;;;;;;0.70;0.70;;;6.80;1.00;;;;;;5072004;28;20185;-74
2022/03/06 12:06:47;;;;;;;0.70;0.70;;;6.40;1.00;;;;;;5071686;28;20178;-73
2022/03/06 12:09:33;;;;;;;0.80;0.80;;;6.70;1.00;;;;;;5070824;28;20550;-72
2022/03/06 12:12:07;;;;;;;0.60;0.60;;;7.80;1.00;;;;;;5071471;28;20174;-74
2022/03/06 12:14:44;;;;;;;0.60;0.60;;;7.60;1.00;;;;;;5071476;28;20678;-73
2022/03/06 12:17:11;;;;;;;0.53;0.53;;;7.30;1.00;;;;;;5065796;28;20182;-74
2022/03/06 12:19:42;;;;;;;0.60;0.60;;;7.20;1.00;;;;;;5059943;28;20186;-73
2022/03/06 12:22:20;;;;;;;0.60;0.60;;;7.40;1.00;;;;;;5071397;28;20171;-73
2022/03/06 12:24:49;;;;;;;0.60;0.60;;;8.60;1.00;;;;;;5071225;28;20189;-73
2022/03/06 12:27:17;;;;;;;0.50;0.50;;;9.70;1.00;;;;;;5071449;28;20182;-74
2022/03/06 12:29:46;;;;;;;0.50;0.50;;;10.20;1.00;;;;;;5070769;28;20688;-75
2022/03/06 12:32:27;;;;;;;0.60;0.60;;;11.00;1.00;;;;;;5071349;28;20699;-74
2022/03/06 12:35:08;;;;;;;0.57;0.57;;;11.80;1.00;;;;;;5071399;28;20645;-75
2022/03/06 12:38:01;;;;;;;0.60;0.60;;;10.80;1.00;;;;;;5071669;28;20174;-74
2022/03/06 12:40:30;;;;;;;0.50;0.50;;;10.10;1.00;;;;;;5067183;28;20215;-75
2022/03/06 12:43:03;;;;;;;0.60;0.60;;;9.00;1.00;;;;;;5054774;28;20526;-74
2022/03/06 12:45:29;;;;;;;0.50;0.50;;;8.30;1.00;;;;;;5052338;28;20163;-73
2022/03/06 12:47:55;;;;;;;0.50;0.50;;;8.10;1.00;;;;;;5054901;28;20875;-73
2022/03/06 12:50:22;;;;;;;0.50;0.50;;;7.60;1.00;;;;;;5054499;28;20223;-73
2022/03/06 12:52:53;;;;;;;0.60;0.60;;;7.30;1.00;;;;;;5054461;28;20176;-74
2022/03/06 12:55:20;;;;;;;0.60;0.60;;;7.40;1.00;;;;;;5054630;28;20179;-75
2022/03/06 12:57:53;;;;;;;0.60;0.60;;;7.80;1.00;;;;;;5054591;28;20171;-73
2022/03/06 13:00:33;;;;;;;0.60;0.60;;;9.40;1.00;;;;;;5054202;28;20214;-73